Time;durP1;ratioP1;P1;durP2;ratioP2;P2;SDS_P1;SDS_P2;PMS_P1;PMS_P2;Temp;Humidity;BMP_temperature;BMP_pressure;BME280_temperature;BME280_humidity;BME280_pressure;Samples;Min_cycle;Max_cycle;Signal;HPM_P1;HPM_P2
2024/01/14 00:02:07;;;;;;;0.52;0.52;;;;;;;-0.07;100.00;101502.88;5094515;28;20032;-57
2024/01/14 00:04:32;;;;;;;0.50;0.50;;;;;;;-0.08;100.00;101496.03;5093442;28;20110;-57
2024/01/14 00:06:57;;;;;;;0.50;0.50;;;;;;;-0.07;100.00;101492.72;5094417;28;20399;-57
2024/01/14 00:09:23;;;;;;;0.50;0.50;;;;;;;-0.07;100.00;101502.88;5094048;28;20034;-57
2024/01/14 00:11:48;;;;;;;0.60;0.60;;;;;;;-0.06;100.00;101493.63;5093308;28;20028;-57
2024/01/14 00:14:14;;;;;;;0.60;0.60;;;;;;;-0.06;100.00;101493.63;5093896;28;20021;-57
2024/01/14 00:16:39;;;;;;;0.52;0.52;;;;;;;-0.05;100.00;101503.91;5093629;28;20062;-57
2024/01/14 00:19:05;;;;;;;0.47;0.47;;;;;;;-0.03;100.00;101491.34;5094024;28;20073;-57
2024/01/14 00:21:31;;;;;;;0.60;0.60;;;;;;;-0.03;100.00;101488.81;5093782;28;20027;-57
2024/01/14 00:23:56;;;;;;;0.50;0.50;;;;;;;-0.03;100.00;101492.25;5093196;28;20028;-57
2024/01/14 00:26:24;;;;;;;0.60;0.60;;;;;;;-0.02;100.00;101483.84;5093591;28;20461;-57
2024/01/14 00:28:53;;;;;;;0.50;0.50;;;;;;;-0.02;100.00;101488.06;5094118;28;20016;-57
2024/01/14 00:31:18;;;;;;;0.50;0.50;;;;;;;-0.02;100.00;101491.47;5092735;28;20463;-57
2024/01/14 00:33:44;;;;;;;0.50;0.50;;;;;;;-0.01;100.00;101472.09;5093949;28;20070;-57
2024/01/14 00:36:09;;;;;;;0.40;0.40;;;;;;;-0.01;100.00;101472.09;5093615;28;20194;-57
2024/01/14 00:38:35;;;;;;;0.43;0.43;;;;;;;-0.01;100.00;101460.28;5093116;28;20372;-57
2024/01/14 00:41:00;;;;;;;0.50;0.50;;;;;;;0.00;100.00;101456.13;5093460;28;20496;-57
2024/01/14 00:43:27;;;;;;;0.60;0.60;;;;;;;0.01;100.00;101464.59;5093539;28;20379;-57
2024/01/14 00:45:52;;;;;;;0.60;0.60;;;;;;;0.02;100.00;101463.84;5093068;28;20036;-58
2024/01/14 00:48:17;;;;;;;0.50;0.50;;;;;;;0.02;100.00;101464.72;5093225;28;20024;-57
2024/01/14 00:50:43;;;;;;;0.50;0.50;;;;;;;0.02;100.00;101457.13;5093659;28;20055;-57
2024/01/14 00:53:08;;;;;;;0.60;0.60;;;;;;;0.02;100.00;101451.19;5092844;28;20078;-57
2024/01/14 00:55:33;;;;;;;0.50;0.50;;;;;;;0.03;100.00;101455.47;5093046;28;20081;-57
2024/01/14 00:57:58;;;;;;;0.40;0.40;;;;;;;0.02;100.00;101452.06;5093680;28;20535;-57
2024/01/14 01:00:26;;;;;;;0.60;0.60;;;;;;;0.03;100.00;101448.78;5092362;28;20078;-57
2024/01/14 01:02:52;;;;;;;0.50;0.50;;;;;;;0.04;100.00;101455.63;5093415;28;20051;-57
2024/01/14 01:05:18;;;;;;;0.50;0.50;;;;;;;0.04;100.00;101442.03;5092936;28;20032;-57
2024/01/14 01:07:43;;;;;;;0.50;0.50;;;;;;;0.04;100.00;101442.03;5092552;28;20028;-57
2024/01/14 01:10:09;;;;;;;0.50;0.50;;;;;;;0.04;100.00;101445.47;5093245;28;20028;-57
2024/01/14 01:12:34;;;;;;;0.40;0.40;;;;;;;0.04;100.00;101439.50;5093339;28;20475;-57
2024/01/14 01:15:00;;;;;;;0.40;0.40;;;;;;;0.03;100.00;101436.09;5092407;28;20032;-57
2024/01/14 01:17:25;;;;;;;0.50;0.50;;;;;;;0.04;100.00;101440.41;5093035;28;20012;-57
2024/01/14 01:19:51;;;;;;;0.50;0.50;;;;;;;0.03;100.00;101430.13;5092679;28;20036;-57
2024/01/14 01:22:16;;;;;;;0.50;0.50;;;;;;;0.02;100.00;101431.78;5092492;28;20028;-57
2024/01/14 01:24:41;;;;;;;0.50;0.50;;;;;;;0.01;100.00;101445.22;5093142;28;20163;-58
2024/01/14 01:27:06;;;;;;;0.50;0.50;;;;;;;0.01;100.00;101444.34;5092431;28;20035;-57
2024/01/14 01:29:32;;;;;;;0.50;0.50;;;;;;;-0.03;100.00;101449.16;5092668;28;20157;-57
2024/01/14 01:31:57;;;;;;;0.50;0.50;;;;;;;-0.06;100.00;101438.75;5093071;28;20031;-57
2024/01/14 01:34:22;;;;;;;0.50;0.50;;;;;;;-0.05;100.00;101429.53;5092043;28;20365;-57
2024/01/14 01:36:48;;;;;;;0.50;0.50;;;;;;;-0.06;100.00;101421.03;5092929;28;20031;-57
2024/01/14 01:39:16;;;;;;;0.50;0.50;;;;;;;-0.04;100.00;101427.13;5092435;28;20073;-57
2024/01/14 01:41:41;;;;;;;0.40;0.40;;;;;;;-0.05;100.00;101424.47;5092130;28;20131;-57
2024/01/14 01:44:06;;;;;;;0.57;0.57;;;;;;;-0.06;100.00;101415.97;5092954;28;20167;-57
2024/01/14 01:46:34;;;;;;;0.50;0.50;;;;;;;-0.06;100.00;101408.34;5092780;28;20102;-57
2024/01/14 01:48:59;;;;;;;0.57;0.57;;;;;;;-0.07;100.00;101398.97;5092066;28;20103;-57
2024/01/14 01:51:25;;;;;;;0.60;0.60;;;;;;;-0.08;100.00;101393.78;5092392;28;20478;-57
2024/01/14 01:53:51;;;;;;;0.45;0.45;;;;;;;-0.09;100.00;101395.44;5092798;28;20024;-57
2024/01/14 01:56:17;;;;;;;0.50;0.50;;;;;;;-0.10;100.00;101397.88;5091961;28;20349;-57
2024/01/14 01:58:43;;;;;;;0.50;0.50;;;;;;;-0.11;100.00;101404.56;5092849;28;20032;-57
2024/01/14 02:01:09;;;;;;;0.50;0.50;;;;;;;-0.12;100.00;101407.84;5092783;28;20383;-58
2024/01/14 02:03:36;;;;;;;0.40;0.40;;;;;;;-0.11;100.00;101407.09;5091851;28;20020;-57
2024/01/14 02:06:02;;;;;;;0.50;0.50;;;;;;;-0.11;100.00;101409.63;5092665;28;20073;-57
2024/01/14 02:08:28;;;;;;;0.53;0.53;;;;;;;-0.12;100.00;101401.91;5092248;28;20050;-57
2024/01/14 02:10:53;;;;;;;0.50;0.50;;;;;;;-0.11;100.00;101391.88;5092066;28;20052;-57
2024/01/14 02:13:19;;;;;;;0.40;0.40;;;;;;;-0.11;100.00;101389.34;5092482;28;20068;-57
2024/01/14 02:15:44;;;;;;;0.40;0.40;;;;;;;-0.10;100.00;101395.34;5092713;28;20095;-57
2024/01/14 02:18:09;;;;;;;0.50;0.50;;;;;;;-0.10;100.00;101393.66;5095389;28;20376;-57
2024/01/14 02:20:34;;;;;;;0.50;0.50;;;;;;;-0.09;100.00;101381.88;5096477;28;20020;-57
2024/01/14 02:23:00;;;;;;;0.50;0.50;;;;;;;-0.10;100.00;101395.34;5096280;28;20023;-57
2024/01/14 02:25:26;;;;;;;0.50;0.50;;;;;;;-0.10;100.00;101396.19;5095442;28;20380;-58
2024/01/14 02:27:51;;;;;;;0.50;0.50;;;;;;;-0.10;100.00;101395.34;5096567;28;20472;-57
2024/01/14 02:30:17;;;;;;;0.47;0.47;;;;;;;-0.10;100.00;101386.06;5095399;28;20070;-57
2024/01/14 02:32:43;;;;;;;0.60;0.60;;;;;;;-0.08;100.00;101381.13;5096181;28;20490;-57
2024/01/14 02:35:08;;;;;;;0.50;0.50;;;;;;;-0.09;100.00;101377.72;5096409;28;20032;-57
2024/01/14 02:37:35;;;;;;;0.60;0.60;;;;;;;-0.09;100.00;101377.72;5095039;28;20024;-57
2024/01/14 02:40:01;;;;;;;0.50;0.50;;;;;;;-0.09;100.00;101372.66;5096122;28;20035;-58
2024/01/14 02:42:26;;;;;;;0.50;0.50;;;;;;;-0.08;100.00;101368.44;5095968;28;20422;-57
2024/01/14 02:44:51;;;;;;;0.50;0.50;;;;;;;-0.08;100.00;101364.28;5095323;28;20038;-57
2024/01/14 02:47:16;;;;;;;0.50;0.50;;;;;;;-0.07;100.00;101352.50;5095476;28;20116;-57
2024/01/14 02:49:42;;;;;;;0.40;0.40;;;;;;;-0.07;100.00;101335.63;5096065;28;20028;-57
2024/01/14 02:52:08;;;;;;;0.50;0.50;;;;;;;-0.07;100.00;101340.69;5094970;28;20059;-57
2024/01/14 02:54:33;;;;;;;0.50;0.50;;;;;;;-0.05;100.00;101333.25;5095741;28;20027;-57
2024/01/14 02:56:58;;;;;;;0.50;0.50;;;;;;;-0.06;100.00;101337.41;5095864;28;20020;-57
2024/01/14 02:59:23;;;;;;;0.50;0.50;;;;;;;-0.07;100.00;101340.69;5094619;28;20078;-57
2024/01/14 03:01:49;;;;;;;0.50;0.50;;;;;;;-0.06;100.00;101337.41;5095591;28;20028;-57
2024/01/14 03:04:14;;;;;;;0.50;0.50;;;;;;;-0.08;100.00;101325.38;5095317;28;20046;-58
2024/01/14 03:06:39;;;;;;;0.50;0.50;;;;;;;-0.07;100.00;101330.56;5094865;28;20024;-57
2024/01/14 03:09:06;;;;;;;0.50;0.50;;;;;;;-0.07;100.00;101330.56;5095754;28;20036;-57
2024/01/14 03:11:35;;;;;;;0.50;0.50;;;;;;;-0.08;100.00;101323.75;5095295;28;20017;-57
2024/01/14 03:14:00;;;;;;;0.47;0.47;;;;;;;-0.09;100.00;101321.97;5094765;28;20047;-57
2024/01/14 03:16:26;;;;;;;0.40;0.40;;;;;;;-0.10;100.00;101312.59;5095032;28;20468;-57
2024/01/14 03:18:51;;;;;;;0.50;0.50;;;;;;;-0.10;100.00;101314.25;5095363;28;20035;-57
2024/01/14 03:21:20;;;;;;;0.50;0.50;;;;;;;-0.11;100.00;101315.88;5094129;28;20064;-57
2024/01/14 03:23:46;;;;;;;0.50;0.50;;;;;;;-0.13;100.00;101312.34;5095327;28;20077;-57
2024/01/14 03:26:11;;;;;;;0.50;0.50;;;;;;;-0.13;100.00;101314.00;5094874;28;20028;-57
2024/01/14 03:28:37;;;;;;;0.50;0.50;;;;;;;-0.13;100.00;101309.81;5094415;28;20063;-57
2024/01/14 03:31:03;;;;;;;0.47;0.47;;;;;;;-0.14;100.00;101312.22;5095161;28;20379;-57
2024/01/14 03:33:28;;;;;;;0.50;0.50;;;;;;;-0.14;100.00;101312.22;5094453;28;20154;-57
2024/01/14 03:35:53;;;;;;;0.50;0.50;;;;;;;-0.15;100.00;101305.41;5094569;28;20035;-57
2024/01/14 03:38:19;;;;;;;0.50;0.50;;;;;;;-0.16;100.00;101301.97;5094882;28;20020;-57
2024/01/14 03:40:45;;;;;;;0.50;0.50;;;;;;;-0.15;100.00;101302.88;5094122;28;20491;-57
2024/01/14 03:43:11;;;;;;;0.50;0.50;;;;;;;-0.16;100.00;101299.44;5094470;28;20052;-57
2024/01/14 03:45:36;;;;;;;0.40;0.40;;;;;;;-0.16;100.00;101299.44;5094694;28;20063;-57
2024/01/14 03:48:02;;;;;;;0.50;0.50;;;;;;;-0.17;100.00;101302.72;5093342;28;20032;-57
2024/01/14 03:50:27;;;;;;;0.50;0.50;;;;;;;-0.18;100.00;101296.78;5094043;28;20444;-57
2024/01/14 03:52:52;;;;;;;0.45;0.45;;;;;;;-0.16;100.00;101289.28;5094703;28;20031;-57
2024/01/14 03:55:18;;;;;;;0.50;0.50;;;;;;;-0.16;100.00;101286.75;5093453;28;20526;-57
2024/01/14 03:57:43;;;;;;;0.50;0.50;;;;;;;-0.16;100.00;101284.22;5094803;28;20103;-57
2024/01/14 04:00:10;;;;;;;0.50;0.50;;;;;;;-0.19;100.00;101274.72;5094793;28;20024;-57
2024/01/14 04:02:35;;;;;;;0.50;0.50;;;;;;;-0.18;100.00;101275.63;5093631;28;20054;-57
2024/01/14 04:05:01;;;;;;;0.43;0.43;;;;;;;-0.20;100.00;101277.16;5094437;28;20455;-57
2024/01/14 04:07:26;;;;;;;0.43;0.43;;;;;;;-0.19;100.00;101281.47;5093681;28;20042;-57
2024/01/14 04:09:51;;;;;;;0.40;0.40;;;;;;;-0.21;100.00;101280.44;5093721;28;20103;-57
2024/01/14 04:12:16;;;;;;;0.50;0.50;;;;;;;-0.22;100.00;101281.19;5094057;28;20024;-57
2024/01/14 04:14:44;;;;;;;0.50;0.50;;;;;;;-0.23;100.00;101269.31;5094067;28;20040;-57
2024/01/14 04:17:09;;;;;;;0.50;0.50;;;;;;;-0.24;100.00;101268.41;5093290;28;20526;-57
2024/01/14 04:19:36;;;;;;;0.60;0.60;;;;;;;-0.25;100.00;101260.69;5094090;28;20020;-57
2024/01/14 04:22:02;;;;;;;0.50;0.50;;;;;;;-0.26;100.00;101259.81;5094360;28;20024;-57
2024/01/14 04:24:27;;;;;;;0.50;0.50;;;;;;;-0.27;100.00;101259.69;5093084;28;20498;-57
2024/01/14 04:26:52;;;;;;;0.50;0.50;;;;;;;-0.30;100.00;101256.91;5094171;28;20379;-57
2024/01/14 04:29:18;;;;;;;0.43;0.43;;;;;;;-0.30;100.00;101270.44;5093830;28;20134;-57
2024/01/14 04:31:43;;;;;;;0.43;0.43;;;;;;;-0.33;100.00;101265.16;5093240;28;20483;-57
2024/01/14 04:34:08;;;;;;;0.50;0.50;;;;;;;-0.31;100.00;101267.81;5093837;28;20028;-57
2024/01/14 04:36:34;;;;;;;0.52;0.52;;;;;;;-0.31;100.00;101267.81;5093749;28;20024;-57
2024/01/14 04:38:59;;;;;;;0.50;0.50;;;;;;;-0.34;100.00;101261.75;5092757;28;20016;-57
2024/01/14 04:41:24;;;;;;;0.60;0.60;;;;;;;-0.34;100.00;101259.22;5093399;28;20093;-57
2024/01/14 04:43:49;;;;;;;0.50;0.50;;;;;;;-0.34;100.00;101250.72;5093091;28;20036;-57
2024/01/14 04:46:15;;;;;;;0.50;0.50;;;;;;;-0.36;100.00;101245.53;5093421;28;20016;-58
2024/01/14 04:48:40;;;;;;;0.50;0.50;;;;;;;-0.37;100.00;101251.34;5093624;28;20028;-57
2024/01/14 04:51:05;;;;;;;0.50;0.50;;;;;;;-0.37;100.00;101248.81;5092763;28;20490;-57
2024/01/14 04:53:30;;;;;;;0.50;0.50;;;;;;;-0.37;100.00;101255.53;5093417;28;20037;-57
2024/01/14 04:55:56;;;;;;;0.50;0.50;;;;;;;-0.38;100.00;101241.97;5093593;28;20449;-57
2024/01/14 04:58:21;;;;;;;0.40;0.40;;;;;;;-0.39;100.00;101240.22;5092459;28;20024;-57
2024/01/14 05:00:46;;;;;;;0.50;0.50;;;;;;;-0.40;100.00;101246.06;5093346;28;20024;-57
2024/01/14 05:03:12;;;;;;;0.40;0.40;;;;;;;-0.39;100.00;101237.69;5093132;28;20030;-57
2024/01/14 05:05:37;;;;;;;0.52;0.52;;;;;;;-0.40;100.00;101243.53;5092259;28;20032;-57
2024/01/14 05:08:02;;;;;;;0.50;0.50;;;;;;;-0.41;100.00;101243.41;5093412;28;20531;-57
2024/01/14 05:10:28;;;;;;;0.50;0.50;;;;;;;-0.44;100.00;101231.38;5092976;28;20032;-57
2024/01/14 05:12:53;;;;;;;0.47;0.47;;;;;;;-0.44;100.00;101222.88;5092541;28;20103;-58
2024/01/14 05:15:18;;;;;;;0.45;0.45;;;;;;;-0.46;100.00;101222.78;5093180;28;20032;-57
2024/01/14 05:17:44;;;;;;;0.40;0.40;;;;;;;-0.51;100.00;101218.97;5093173;28;20016;-57
2024/01/14 05:20:09;;;;;;;0.60;0.60;;;;;;;-0.51;100.00;101224.03;5092181;28;20039;-57
2024/01/14 05:22:34;;;;;;;0.40;0.40;;;;;;;-0.51;100.00;101224.03;5093282;28;20028;-57
2024/01/14 05:25:00;;;;;;;0.40;0.40;;;;;;;-0.53;100.00;101225.56;5093083;28;20047;-57
2024/01/14 05:27:25;;;;;;;0.50;0.50;;;;;;;-0.54;100.00;101221.28;5092145;28;20369;-57
2024/01/14 05:29:50;;;;;;;0.52;0.52;;;;;;;-0.53;100.00;101221.41;5093167;28;20019;-57
2024/01/14 05:32:17;;;;;;;0.60;0.60;;;;;;;-0.54;100.00;101212.03;5092900;28;20035;-57
2024/01/14 05:34:44;;;;;;;0.50;0.50;;;;;;;-0.56;100.00;101215.19;5092266;28;20043;-57
2024/01/14 05:37:09;;;;;;;0.50;0.50;;;;;;;-0.55;100.00;101201.78;5092761;28;20039;-57
2024/01/14 05:39:34;;;;;;;0.50;0.50;;;;;;;-0.56;100.00;101202.53;5092856;28;20028;-57
2024/01/14 05:42:00;;;;;;;0.40;0.40;;;;;;;-0.57;100.00;101203.28;5091987;28;20131;-57
2024/01/14 05:44:26;;;;;;;0.50;0.50;;;;;;;-0.58;100.00;101194.81;5092478;28;20031;-57
2024/01/14 05:46:51;;;;;;;0.50;0.50;;;;;;;-0.60;100.00;101187.88;5092839;28;20099;-57
2024/01/14 05:49:17;;;;;;;0.50;0.50;;;;;;;-0.60;100.00;101198.00;5091717;28;20479;-57
2024/01/14 05:51:42;;;;;;;0.60;0.60;;;;;;;-0.59;100.00;101189.66;5094536;28;20020;-57
2024/01/14 05:54:08;;;;;;;0.50;0.50;;;;;;;-0.60;100.00;101193.81;5097004;28;20055;-57
2024/01/14 05:56:33;;;;;;;0.50;0.50;;;;;;;-0.60;100.00;101190.41;5096131;28;20121;-57
2024/01/14 05:59:00;;;;;;;0.40;0.40;;;;;;;-0.61;100.00;101188.63;5096971;28;20141;-57
2024/01/14 06:01:27;;;;;;;0.50;0.50;;;;;;;-0.61;100.00;101178.50;5095702;28;20480;-57
2024/01/14 06:03:52;;;;;;;0.50;0.50;;;;;;;-0.62;100.00;101171.66;5096633;28;20468;-57
2024/01/14 06:06:17;;;;;;;0.50;0.50;;;;;;;-0.64;100.00;101169.00;5096679;28;20040;-57
2024/01/14 06:08:43;;;;;;;0.55;0.55;;;;;;;-0.64;100.00;101170.69;5094914;28;20020;-57
2024/01/14 06:11:08;;;;;;;0.52;0.52;;;;;;;-0.65;100.00;101169.78;5096478;28;20058;-57
2024/01/14 06:13:34;;;;;;;0.60;0.60;;;;;;;-0.65;100.00;101174.84;5096406;28;20039;-57
2024/01/14 06:16:01;;;;;;;0.50;0.50;;;;;;;-0.64;100.00;101168.16;5095814;28;20016;-57
2024/01/14 06:18:28;;;;;;;0.55;0.55;;;;;;;-0.66;100.00;101165.47;5096281;28;20031;-57
2024/01/14 06:20:55;;;;;;;0.40;0.40;;;;;;;-0.66;100.00;101157.88;5096661;28;20031;-57
2024/01/14 06:23:21;;;;;;;0.50;0.50;;;;;;;-0.66;100.00;101160.41;5095592;28;20024;-57
2024/01/14 06:25:46;;;;;;;0.60;0.60;;;;;;;-0.65;100.00;101156.25;5096307;28;20024;-57
2024/01/14 06:28:11;;;;;;;0.60;0.60;;;;;;;-0.64;100.00;101150.44;5096108;28;20016;-57
2024/01/14 06:30:37;;;;;;;0.40;0.40;;;;;;;-0.64;100.00;101145.38;5095610;28;20055;-57
2024/01/14 06:33:02;;;;;;;0.50;0.50;;;;;;;-0.64;100.00;101145.38;5096070;28;20020;-57
2024/01/14 06:35:27;;;;;;;0.60;0.60;;;;;;;-0.64;100.00;101145.38;5095952;28;20066;-57
2024/01/14 06:37:53;;;;;;;0.50;0.50;;;;;;;-0.63;100.00;101147.09;5095327;28;20024;-57
2024/01/14 06:40:18;;;;;;;0.57;0.57;;;;;;;-0.64;100.00;101143.69;5095731;28;20051;-57
2024/01/14 06:42:43;;;;;;;0.50;0.50;;;;;;;-0.64;100.00;101141.16;5096285;28;20024;-57
2024/01/14 06:45:12;;;;;;;0.50;0.50;;;;;;;-0.62;100.00;101139.66;5095224;28;20035;-57
2024/01/14 06:47:37;;;;;;;0.50;0.50;;;;;;;-0.62;100.00;101143.81;5096070;28;20020;-57
2024/01/14 06:50:03;;;;;;;0.60;0.60;;;;;;;-0.60;100.00;101132.19;5096148;28;20016;-57
2024/01/14 06:52:28;;;;;;;0.50;0.50;;;;;;;-0.60;100.00;101129.66;5095078;28;20082;-57
2024/01/14 06:54:53;;;;;;;0.60;0.60;;;;;;;-0.60;100.00;101122.06;5095867;28;20494;-57
2024/01/14 06:57:18;;;;;;;0.50;0.50;;;;;;;-0.60;100.00;101124.59;5095782;28;20081;-57
2024/01/14 06:59:44;;;;;;;0.60;0.60;;;;;;;-0.60;100.00;101119.53;5094941;28;20022;-57
2024/01/14 07:02:11;;;;;;;0.52;0.52;;;;;;;-0.61;100.00;101118.63;5094680;28;20080;-57
2024/01/14 07:04:36;;;;;;;0.60;0.60;;;;;;;-0.59;100.00;101116.22;5094992;28;20028;-57
2024/01/14 07:07:02;;;;;;;0.40;0.40;;;;;;;-0.60;100.00;101119.53;5095747;28;20103;-57
2024/01/14 07:09:27;;;;;;;0.50;0.50;;;;;;;-0.60;100.00;101117.00;5094994;28;20501;-57
2024/01/14 07:11:52;;;;;;;0.52;0.52;;;;;;;-0.60;100.00;101117.88;5094485;28;20036;-57
2024/01/14 07:14:17;;;;;;;0.50;0.50;;;;;;;-0.61;100.00;101110.16;5094954;28;20024;-57
2024/01/14 07:16:43;;;;;;;0.50;0.50;;;;;;;-0.62;100.00;101108.38;5095270;28;20043;-58
2024/01/14 07:19:08;;;;;;;0.60;0.60;;;;;;;-0.64;100.00;101113.31;5094443;28;20055;-58
2024/01/14 07:21:33;;;;;;;0.50;0.50;;;;;;;-0.64;100.00;101108.25;5095096;28;20035;-57
2024/01/14 07:23:59;;;;;;;0.60;0.60;;;;;;;-0.64;100.00;101109.94;5095328;28;20052;-57
2024/01/14 07:26:25;;;;;;;0.57;0.57;;;;;;;-0.65;100.00;101118.28;5094209;28;20024;-57
2024/01/14 07:28:52;;;;;;;0.40;0.40;;;;;;;-0.65;100.00;101120.81;5095474;28;20024;-57
2024/01/14 07:31:20;;;;;;;0.50;0.50;;;;;;;-0.67;100.00;101115.63;5094733;28;20028;-57
2024/01/14 07:33:48;;;;;;;0.60;0.60;;;;;;;-0.68;100.00;101109.66;5094463;28;20020;-57
2024/01/14 07:36:13;;;;;;;0.60;0.60;;;;;;;-0.67;100.00;101108.91;5094690;28;20084;-57
2024/01/14 07:38:38;;;;;;;0.52;0.52;;;;;;;-0.68;100.00;101109.66;5094698;28;20048;-57
2024/01/14 07:41:05;;;;;;;0.55;0.55;;;;;;;-0.69;100.00;101110.41;5094042;28;20040;-57
2024/01/14 07:43:30;;;;;;;0.50;0.50;;;;;;;-0.69;100.00;101115.47;5094500;28;20435;-57
2024/01/14 07:45:55;;;;;;;0.45;0.45;;;;;;;-0.68;100.00;101113.84;5094755;28;20570;-57
2024/01/14 07:48:21;;;;;;;0.50;0.50;;;;;;;-0.67;100.00;101111.44;5093922;28;20020;-57
2024/01/14 07:50:46;;;;;;;0.50;0.50;;;;;;;-0.66;100.00;101112.31;5094808;28;20024;-57
2024/01/14 07:53:13;;;;;;;0.50;0.50;;;;;;;-0.65;100.00;101114.09;5094384;28;20028;-57
2024/01/14 07:55:38;;;;;;;0.57;0.57;;;;;;;-0.63;100.00;101111.66;5094076;28;20230;-57
2024/01/14 07:58:03;;;;;;;0.50;0.50;;;;;;;-0.63;100.00;101102.44;5094274;28;20058;-57
2024/01/14 08:00:29;;;;;;;0.50;0.50;;;;;;;-0.62;100.00;101093.19;5094050;28;20031;-58
2024/01/14 08:02:54;;;;;;;0.40;0.40;;;;;;;-0.60;100.00;101106.88;5093467;28;20024;-57
2024/01/14 08:05:19;;;;;;;0.50;0.50;;;;;;;-0.60;100.00;101101.81;5093799;28;20043;-57
2024/01/14 08:07:44;;;;;;;0.50;0.50;;;;;;;-0.60;100.00;101106.88;5094276;28;20528;-57
2024/01/14 08:10:10;;;;;;;0.50;0.50;;;;;;;-0.58;100.00;101105.31;5093483;28;20024;-57
2024/01/14 08:12:35;;;;;;;0.50;0.50;;;;;;;-0.58;100.00;101105.31;5094369;28;20459;-57
2024/01/14 08:15:01;;;;;;;0.40;0.40;;;;;;;-0.57;100.00;101102.03;5092434;28;20036;-57
2024/01/14 08:17:26;;;;;;;0.50;0.50;;;;;;;-0.55;100.00;101113.19;5093962;28;20033;-57
2024/01/14 08:19:52;;;;;;;0.50;0.50;;;;;;;-0.54;100.00;101104.81;5094109;28;20073;-57
2024/01/14 08:22:17;;;;;;;0.45;0.45;;;;;;;-0.54;100.00;101107.34;5093115;28;20020;-57
2024/01/14 08:24:43;;;;;;;0.60;0.60;;;;;;;-0.53;100.00;101106.56;5094000;28;20028;-57
2024/01/14 08:27:08;;;;;;;0.45;0.45;;;;;;;-0.51;100.00;101102.50;5093909;28;20032;-58
2024/01/14 08:29:33;;;;;;;0.60;0.60;;;;;;;-0.48;100.00;101102.75;5092901;28;20349;-57
2024/01/14 08:31:59;;;;;;;0.57;0.57;;;;;;;-0.46;100.00;101105.41;5094134;28;20028;-57
2024/01/14 08:34:25;;;;;;;0.50;0.50;;;;;;;-0.46;100.00;101106.28;5093775;28;20036;-57
2024/01/14 08:36:51;;;;;;;0.50;0.50;;;;;;;-0.43;100.00;101100.59;5093128;28;20020;-57
2024/01/14 08:39:16;;;;;;;0.50;0.50;;;;;;;-0.41;100.00;101099.06;5093750;28;20030;-57
2024/01/14 08:41:41;;;;;;;0.40;0.40;;;;;;;-0.40;100.00;101099.19;5093222;28;20443;-57
2024/01/14 08:44:10;;;;;;;0.50;0.50;;;;;;;-0.37;100.00;101093.47;5092668;28;20103;-57
2024/01/14 08:46:39;;;;;;;0.50;0.50;;;;;;;-0.35;100.00;101094.44;5093242;28;20445;-57
2024/01/14 08:49:04;;;;;;;0.50;0.50;;;;;;;-0.34;100.00;101092.06;5093572;28;20028;-57
2024/01/14 08:51:29;;;;;;;0.60;0.60;;;;;;;-0.30;100.00;101087.22;5092540;28;20462;-58
2024/01/14 08:54:00;;;;;;;0.60;0.60;;;;;;;-0.29;100.00;101091.53;5093626;28;20456;-57
2024/01/14 08:56:26;;;;;;;0.50;0.50;;;;;;;-0.31;100.00;101081.28;5093077;28;20032;-57
2024/01/14 08:58:51;;;;;;;0.50;0.50;;;;;;;-0.27;100.00;101093.41;5092563;28;20026;-57
2024/01/14 09:01:17;;;;;;;0.50;0.50;;;;;;;-0.27;100.00;101082.38;5092587;28;20040;-57
2024/01/14 09:03:43;;;;;;;0.50;0.50;;;;;;;-0.26;100.00;101095.19;5092136;28;20024;-57
2024/01/14 09:06:09;;;;;;;0.50;0.50;;;;;;;-0.24;100.00;101092.75;5091452;28;20035;-57
2024/01/14 09:08:35;;;;;;;0.50;0.50;;;;;;;-0.25;100.00;101089.31;5091647;28;20464;-57
2024/01/14 09:11:00;;;;;;;0.50;0.50;;;;;;;-0.25;100.00;101096.06;5093165;28;20104;-57
2024/01/14 09:13:26;;;;;;;0.52;0.52;;;;;;;-0.26;100.00;101097.72;5092204;28;20048;-57
2024/01/14 09:15:51;;;;;;;0.50;0.50;;;;;;;-0.25;100.00;101091.00;5093356;28;20028;-57
2024/01/14 09:18:17;;;;;;;0.50;0.50;;;;;;;-0.24;100.00;101095.31;5092374;28;20024;-57
2024/01/14 09:20:42;;;;;;;0.50;0.50;;;;;;;-0.24;100.00;101080.97;5093019;28;20452;-57
2024/01/14 09:23:08;;;;;;;0.40;0.40;;;;;;;-0.25;100.00;101086.78;5093197;28;20023;-57
2024/01/14 09:25:33;;;;;;;0.50;0.50;;;;;;;-0.23;100.00;101079.34;5091787;28;20146;-57
2024/01/14 09:27:58;;;;;;;0.50;0.50;;;;;;;-0.21;100.00;101075.25;5092928;28;20027;-57
2024/01/14 09:30:24;;;;;;;0.50;0.50;;;;;;;-0.20;100.00;101079.56;5092889;28;20495;-57
2024/01/14 09:32:49;;;;;;;0.50;0.50;;;;;;;-0.20;100.00;101077.03;5092153;28;20064;-57
2024/01/14 09:35:14;;;;;;;0.50;0.50;;;;;;;-0.18;100.00;101067.91;5092813;28;20456;-57
2024/01/14 09:37:39;;;;;;;0.40;0.40;;;;;;;-0.21;100.00;101070.19;5092851;28;20111;-57
2024/01/14 09:40:06;;;;;;;0.40;0.40;;;;;;;-0.19;100.00;101067.00;5092007;28;20460;-57
2024/01/14 09:42:38;;;;;;;0.50;0.50;;;;;;;-0.16;100.00;101066.34;5092557;28;20059;-57
2024/01/14 09:45:05;;;;;;;0.50;0.50;;;;;;;-0.15;100.00;101063.06;5092998;28;20027;-57
2024/01/14 09:47:32;;;;;;;0.43;0.43;;;;;;;-0.13;100.00;101061.53;5091965;28;20039;-57
2024/01/14 09:49:59;;;;;;;0.50;0.50;;;;;;;-0.12;100.00;101059.88;5092971;28;20036;-57
2024/01/14 09:52:25;;;;;;;0.50;0.50;;;;;;;-0.12;100.00;101063.28;5092622;28;20020;-57
2024/01/14 09:54:53;;;;;;;0.50;0.50;;;;;;;-0.11;100.00;101066.72;5092073;28;20474;-57
2024/01/14 09:57:20;;;;;;;0.50;0.50;;;;;;;-0.09;100.00;101063.53;5092345;28;20028;-57
2024/01/14 09:59:48;;;;;;;0.40;0.40;;;;;;;-0.11;100.00;101046.44;5092893;28;20025;-57
2024/01/14 10:02:14;;;;;;;0.47;0.47;;;;;;;-0.11;100.00;101057.47;5091867;28;20020;-57
2024/01/14 10:04:45;;;;;;;0.50;0.50;;;;;;;-0.08;100.00;101055.19;5092750;28;20032;-57
2024/01/14 10:07:11;;;;;;;0.32;0.32;;;;;;;-0.03;100.00;101058.03;5092452;28;20027;-57
2024/01/14 10:09:39;;;;;;;0.50;0.50;;;;;;;-0.02;100.00;101053.06;5091827;28;20117;-58
2024/01/14 10:12:07;;;;;;;;;;;;;;;0.11;100.00;101048.94;5093158;28;20032;-57
2024/01/14 10:14:34;;;;;;;0.50;0.50;;;;;;;0.03;100.00;101044.94;5091666;28;19918;-57
2024/01/14 10:16:59;;;;;;;0.50;0.50;;;;;;;0.03;100.00;101039.88;5092610;28;20105;-58
2024/01/14 10:19:25;;;;;;;0.50;0.50;;;;;;;0.08;100.00;101036.03;5092313;28;20463;-57
2024/01/14 10:21:53;;;;;;;0.50;0.50;;;;;;;0.10;100.00;101024.38;5091783;28;20425;-57
2024/01/14 10:24:18;;;;;;;0.45;0.45;;;;;;;0.15;100.00;101033.19;5092000;28;20020;-57
2024/01/14 10:26:43;;;;;;;0.50;0.50;;;;;;;0.13;100.00;101019.50;5092419;28;20043;-57
2024/01/14 10:29:09;;;;;;;0.47;0.47;;;;;;;0.12;100.00;101018.63;5091829;28;20030;-57
2024/01/14 10:31:35;;;;;;;0.45;0.45;;;;;;;0.14;100.00;101011.16;5092711;28;20024;-57
2024/01/14 10:34:02;;;;;;;0.40;0.40;;;;;;;0.17;100.00;101013.94;5092581;28;20028;-57
2024/01/14 10:36:31;;;;;;;0.50;0.50;;;;;;;0.22;100.00;101015.16;5091425;28;20103;-57
2024/01/14 10:38:59;;;;;;;0.52;0.52;;;;;;;0.20;100.00;101016.66;5095603;28;20020;-57
2024/01/14 10:41:24;;;;;;;0.40;0.40;;;;;;;0.19;100.00;101011.50;5095566;28;20476;-57
2024/01/14 10:43:50;;;;;;;0.40;0.40;;;;;;;0.16;100.00;101002.00;5095137;28;20042;-58
2024/01/14 10:46:16;;;;;;;0.50;0.50;;;;;;;0.12;100.00;100992.44;5095760;28;20099;-58
2024/01/14 10:48:42;;;;;;;0.50;0.50;;;;;;;0.08;100.00;100995.47;5095927;28;20024;-58
2024/01/14 10:51:10;;;;;;;0.40;0.40;;;;;;;0.03;100.00;100982.47;5095091;28;20464;-58
2024/01/14 10:54:04;;;;;;;0.50;0.50;;;;;;;0.07;100.00;100986.13;5096077;28;20024;-58
2024/01/14 10:56:39;;;;;;;0.50;0.50;;;;;;;0.02;100.00;100980.72;5095763;28;20032;-57
2024/01/14 10:59:07;;;;;;;0.50;0.50;;;;;;;-0.01;100.00;100971.22;5095819;28;20031;-58
2024/01/14 11:01:36;;;;;;;0.50;0.50;;;;;;;-0.02;100.00;100964.41;5095463;28;20032;-57
2024/01/14 11:04:03;;;;;;;0.40;0.40;;;;;;;-0.06;100.00;100961.53;5094779;28;20120;-58
2024/01/14 11:06:29;;;;;;;0.40;0.40;;;;;;;-0.06;100.00;100961.53;5095619;28;20128;-57
2024/01/14 11:08:54;;;;;;;0.45;0.45;;;;;;;-0.07;100.00;100957.22;5095663;28;20020;-57
2024/01/14 11:11:26;;;;;;;0.50;0.50;;;;;;;-0.09;100.00;100957.13;5094475;28;20480;-57
2024/01/14 11:14:05;;;;;;;0.50;0.50;;;;;;;-0.08;100.00;100952.94;5095631;28;20047;-57